Time;durP1;ratioP1;P1;durP2;ratioP2;P2;SDS_P1;SDS_P2;PMS_P1;PMS_P2;Temp;Humidity;BMP_temperature;BMP_pressure;BME280_temperature;BME280_humidity;BME280_pressure;Samples;Min_cycle;Max_cycle;Signal;HPM_P1;HPM_P2
2022/10/25 00:01:05;;;;;;;1999.90;999.90;;;;;;;;;;5041021;27;20920;-75
2022/10/25 00:03:35;;;;;;;1999.90;999.90;;;;;;;;;;4986973;27;20403;-73
2022/10/25 00:06:05;;;;;;;1999.90;999.90;;;;;;;;;;4984460;27;20411;-75
2022/10/25 00:08:35;;;;;;;1999.90;999.90;;;;;;;;;;4983166;27;20423;-74
2022/10/25 00:11:05;;;;;;;1999.90;999.90;;;;;;;;;;5014142;27;20401;-72
2022/10/25 00:13:34;;;;;;;1999.90;999.90;;;;;;;;;;5003287;27;20406;-73
2022/10/25 00:16:05;;;;;;;1999.90;999.90;;;;;;;;;;4938675;27;20761;-73
2022/10/25 00:18:33;;;;;;;1999.90;999.90;;;;;;;;;;4962340;27;20550;-74
2022/10/25 00:21:04;;;;;;;1999.90;999.90;;;;;;;;;;4929993;27;20415;-74
2022/10/25 00:23:33;;;;;;;1999.90;999.90;;;;;;;;;;4997198;27;20404;-74
2022/10/25 00:26:01;;;;;;;1999.90;999.90;;;;;;;;;;5037200;27;20494;-73
2022/10/25 00:28:29;;;;;;;1999.90;999.90;;;;;;;;;;4999403;27;21235;-72
2022/10/25 00:31:01;;;;;;;1999.90;999.90;;;;;;;;;;5007732;27;21238;-73
2022/10/25 00:33:32;;;;;;;1999.90;999.90;;;;;;;;;;4953663;27;20411;-74
2022/10/25 00:36:04;;;;;;;1999.90;999.90;;;;;;;;;;5061684;27;20407;-74
2022/10/25 00:38:32;;;;;;;1999.90;999.90;;;;;;;;;;4904299;28;20407;-74
2022/10/25 00:41:00;;;;;;;1999.90;999.90;;;;;;;;;;5003292;27;20395;-74
2022/10/25 00:43:32;;;;;;;1999.90;999.90;;;;;;;;;;4998484;27;20421;-75
2022/10/25 00:46:01;;;;;;;1999.90;999.90;;;;;;;;;;4930910;27;21163;-72
2022/10/25 00:48:29;;;;;;;1999.90;999.90;;;;;;;;;;4870716;27;20388;-73
2022/10/25 00:51:00;;;;;;;1999.90;999.90;;;;;;;;;;5008807;27;20421;-73
2022/10/25 00:53:31;;;;;;;1999.90;999.90;;;;;;;;;;5012225;27;20972;-74
2022/10/25 00:56:02;;;;;;;1999.90;999.90;;;;;;;;;;4989518;27;20399;-73
2022/10/25 00:58:31;;;;;;;1999.90;999.90;;;;;;;;;;5012187;28;20878;-74
2022/10/25 01:00:59;;;;;;;1999.90;999.90;;;;;;;;;;5005554;27;20487;-73
2022/10/25 01:03:27;;;;;;;1999.90;999.90;;;;;;;;;;4901563;27;20398;-73
2022/10/25 01:05:58;;;;;;;1999.90;999.90;;;;;;;;;;4928552;27;20480;-73
2022/10/25 01:08:28;;;;;;;1999.90;999.90;;;;;;;;;;4988929;27;20423;-75
2022/10/25 01:10:56;;;;;;;1999.90;999.90;;;;;;;;;;4943722;27;20409;-72
2022/10/25 01:13:24;;;;;;;1999.90;999.90;;;;;;;;;;5042904;27;20947;-73
2022/10/25 01:15:57;;;;;;;1999.90;999.90;;;;;;;;;;5004508;27;21344;-72
2022/10/25 01:18:32;;;;;;;1999.90;999.90;;;;;;;;;;4967663;27;21241;-73
2022/10/25 01:21:18;;;;;;;1999.90;999.90;;;;;;;;;;5011328;27;20959;-73
2022/10/25 01:24:04;;;;;;;1999.90;999.90;;;;;;;;;;4988750;27;20415;-72
2022/10/25 01:26:53;;;;;;;1999.90;999.90;;;;;;;;;;4977958;27;20411;-72
2022/10/25 01:29:28;;;;;;;1999.90;999.90;;;;;;;;;;4935835;27;20543;-73
2022/10/25 01:32:00;;;;;;;1999.90;999.90;;;;;;;;;;4942904;27;20422;-73
2022/10/25 01:34:30;;;;;;;1999.90;999.90;;;;;;;;;;5027874;27;20392;-73
2022/10/25 01:37:02;;;;;;;1999.90;999.90;;;;;;;;;;4978778;27;20410;-70
2022/10/25 01:39:32;;;;;;;1999.90;999.90;;;;;;;;;;4998370;27;20404;-73
2022/10/25 01:42:05;;;;;;;1999.90;999.90;;;;;;;;;;5019719;27;20382;-73
2022/10/25 01:44:38;;;;;;;1999.90;999.90;;;;;;;;;;4971157;28;20406;-73
2022/10/25 01:47:10;;;;;;;1999.90;999.90;;;;;;;;;;5032353;27;20490;-72
2022/10/25 01:49:41;;;;;;;1999.90;999.90;;;;;;;;;;4957442;27;20371;-74
2022/10/25 01:52:10;;;;;;;1999.90;999.90;;;;;;;;;;5026486;27;20426;-75
2022/10/25 01:54:38;;;;;;;1999.90;999.90;;;;;;;;;;5037303;27;20395;-74
2022/10/25 01:57:16;;;;;;;1999.90;999.90;;;;;;;;;;5012256;27;20588;-72
2022/10/25 01:59:53;;;;;;;1999.90;999.90;;;;;;;;;;4960778;27;21207;-74
2022/10/25 02:02:26;;;;;;;1999.90;999.90;;;;;;;;;;4968957;27;20402;-74
2022/10/25 02:04:59;;;;;;;1999.90;999.90;;;;;;;;;;5015297;27;20893;-75
2022/10/25 02:07:30;;;;;;;1999.90;999.90;;;;;;;;;;5022090;27;20407;-76
2022/10/25 02:10:03;;;;;;;1999.90;999.90;;;;;;;;;;4983170;27;20550;-73
2022/10/25 02:12:33;;;;;;;1999.90;999.90;;;;;;;;;;4988590;27;20403;-74
2022/10/25 02:15:05;;;;;;;1999.90;999.90;;;;;;;;;;5023458;27;20407;-74
2022/10/25 02:17:36;;;;;;;1999.90;999.90;;;;;;;;;;4971245;27;20737;-74
2022/10/25 02:20:07;;;;;;;1999.90;999.90;;;;;;;;;;5011654;27;21287;-73
2022/10/25 02:22:37;;;;;;;1999.90;999.90;;;;;;;;;;4992166;27;20547;-75
2022/10/25 02:25:08;;;;;;;1999.90;999.90;;;;;;;;;;5049596;27;20526;-71
2022/10/25 02:27:39;;;;;;;1999.90;999.90;;;;;;;;;;4942805;27;20893;-73
2022/10/25 02:30:07;;;;;;;1999.90;999.90;;;;;;;;;;4993908;27;21441;-74
2022/10/25 02:32:36;;;;;;;1999.90;999.90;;;;;;;;;;5037848;27;20445;-75
2022/10/25 02:35:04;;;;;;;1999.90;999.90;;;;;;;;;;5042593;27;20443;-74
2022/10/25 02:37:33;;;;;;;1999.90;999.90;;;;;;;;;;5028040;27;20411;-73
2022/10/25 02:40:02;;;;;;;1999.90;999.90;;;;;;;;;;5033773;27;21113;-74
2022/10/25 02:42:31;;;;;;;1999.90;999.90;;;;;;;;;;5008380;27;20498;-74
2022/10/25 02:45:00;;;;;;;1999.90;999.90;;;;;;;;;;5062998;27;20949;-74
2022/10/25 02:47:31;;;;;;;1999.90;999.90;;;;;;;;;;5027744;27;20481;-74
2022/10/25 02:50:01;;;;;;;1999.90;999.90;;;;;;;;;;4993642;28;20461;-74
2022/10/25 02:52:30;;;;;;;1999.90;999.90;;;;;;;;;;4998809;27;20402;-75
2022/10/25 02:54:58;;;;;;;1999.90;999.90;;;;;;;;;;5010261;27;21431;-73
2022/10/25 02:57:32;;;;;;;1999.90;999.90;;;;;;;;;;5001545;27;20419;-74
2022/10/25 03:00:15;;;;;;;1999.90;999.90;;;;;;;;;;5026325;27;20923;-74
2022/10/25 03:02:43;;;;;;;1999.90;999.90;;;;;;;;;;4987790;27;20390;-73
2022/10/25 03:05:13;;;;;;;1999.90;999.90;;;;;;;;;;5032347;27;20393;-74
2022/10/25 03:07:41;;;;;;;1999.90;999.90;;;;;;;;;;5045742;27;21595;-74
2022/10/25 03:10:09;;;;;;;1999.90;999.90;;;;;;;;;;5035786;27;20385;-73
2022/10/25 03:12:38;;;;;;;1999.90;999.90;;;;;;;;;;4997524;27;21094;-73
2022/10/25 03:15:07;;;;;;;1999.90;999.90;;;;;;;;;;5009730;27;20392;-73
2022/10/25 03:17:35;;;;;;;1999.90;999.90;;;;;;;;;;5035942;27;20465;-73
2022/10/25 03:20:03;;;;;;;1999.90;999.90;;;;;;;;;;4999649;27;20372;-71
2022/10/25 03:22:34;;;;;;;1999.90;999.90;;;;;;;;;;4994815;27;20969;-73
2022/10/25 03:25:02;;;;;;;1999.90;999.90;;;;;;;;;;5014696;27;20388;-73
2022/10/25 03:27:30;;;;;;;1999.90;999.90;;;;;;;;;;5070474;27;20433;-73
2022/10/25 03:29:58;;;;;;;1999.90;999.90;;;;;;;;;;5040705;27;20399;-73
2022/10/25 03:32:26;;;;;;;1999.90;999.90;;;;;;;;;;5059552;27;21257;-75
2022/10/25 03:34:54;;;;;;;1999.90;999.90;;;;;;;;;;4982106;27;20978;-72
2022/10/25 03:37:22;;;;;;;1999.90;999.90;;;;;;;;;;5065369;27;20377;-75
2022/10/25 03:39:54;;;;;;;1999.90;999.90;;;;;;;;;;5056356;27;20441;-76
2022/10/25 03:42:23;;;;;;;1999.90;999.90;;;;;;;;;;5029291;27;20401;-74
2022/10/25 03:44:51;;;;;;;1999.90;999.90;;;;;;;;;;5022928;27;21336;-74
2022/10/25 03:47:19;;;;;;;1999.90;999.90;;;;;;;;;;4997812;28;21477;-73
2022/10/25 03:49:47;;;;;;;1999.90;999.90;;;;;;;;;;4951803;27;21398;-74
2022/10/25 03:52:15;;;;;;;1999.90;999.90;;;;;;;;;;5052415;27;20410;-73
2022/10/25 03:54:44;;;;;;;1999.90;999.90;;;;;;;;;;5056467;27;20395;-75
2022/10/25 03:57:14;;;;;;;1999.90;999.90;;;;;;;;;;5007962;27;20411;-74
2022/10/25 03:59:43;;;;;;;1999.90;999.90;;;;;;;;;;4910487;27;20529;-74
2022/10/25 04:02:12;;;;;;;1999.90;999.90;;;;;;;;;;5064656;27;20804;-74
2022/10/25 04:04:40;;;;;;;1999.90;999.90;;;;;;;;;;5042550;27;20461;-76
2022/10/25 04:07:08;;;;;;;1999.90;999.90;;;;;;;;;;5040560;27;20756;-75
2022/10/25 04:09:36;;;;;;;1999.90;999.90;;;;;;;;;;5016088;27;21293;-73
2022/10/25 04:12:10;;;;;;;1999.90;999.90;;;;;;;;;;5031909;27;21331;-71
2022/10/25 04:14:39;;;;;;;1999.90;999.90;;;;;;;;;;5038555;27;20406;-74
2022/10/25 04:17:07;;;;;;;1999.90;999.90;;;;;;;;;;5047250;27;20423;-73
2022/10/25 04:19:35;;;;;;;1999.90;999.90;;;;;;;;;;5038004;27;20408;-72
2022/10/25 04:22:04;;;;;;;1999.90;999.90;;;;;;;;;;5015425;27;20410;-74
2022/10/25 04:24:31;;;;;;;1999.90;999.90;;;;;;;;;;5030351;27;20988;-72
2022/10/25 04:27:08;;;;;;;1999.90;999.90;;;;;;;;;;5008803;27;20418;-72
2022/10/25 04:29:37;;;;;;;1999.90;999.90;;;;;;;;;;5017755;27;21268;-72
2022/10/25 04:32:07;;;;;;;1999.90;999.90;;;;;;;;;;5086741;27;20389;-72
2022/10/25 04:34:34;;;;;;;1999.90;999.90;;;;;;;;;;5097202;27;20489;-74
2022/10/25 04:37:02;;;;;;;1999.90;999.90;;;;;;;;;;5112008;27;20551;-73
2022/10/25 04:39:30;;;;;;;1999.90;999.90;;;;;;;;;;5105759;27;20399;-73
2022/10/25 04:41:57;;;;;;;1999.90;999.90;;;;;;;;;;5106071;27;20391;-74
2022/10/25 04:44:25;;;;;;;1999.90;999.90;;;;;;;;;;5102113;27;20391;-73
2022/10/25 04:46:53;;;;;;;1999.90;999.90;;;;;;;;;;5111055;27;21070;-74
2022/10/25 04:49:22;;;;;;;1999.90;999.90;;;;;;;;;;5112791;27;20488;-73
2022/10/25 04:51:50;;;;;;;1999.90;999.90;;;;;;;;;;5103496;27;20476;-73
2022/10/25 04:54:22;;;;;;;1999.90;999.90;;;;;;;;;;5113860;27;20447;-74
2022/10/25 04:56:50;;;;;;;1999.90;999.90;;;;;;;;;;5107049;27;20422;-73
2022/10/25 04:59:18;;;;;;;1999.90;999.90;;;;;;;;;;5109342;27;20386;-75
2022/10/25 05:01:45;;;;;;;1999.90;999.90;;;;;;;;;;5105002;27;20498;-72
2022/10/25 05:04:13;;;;;;;1999.90;999.90;;;;;;;;;;5101367;27;20437;-74
2022/10/25 05:06:42;;;;;;;1999.90;999.90;;;;;;;;;;5106688;27;20500;-75
2022/10/25 05:09:10;;;;;;;1999.90;999.90;;;;;;;;;;5114955;27;20457;-77
2022/10/25 05:11:37;;;;;;;1999.90;999.90;;;;;;;;;;5110772;27;20435;-77
2022/10/25 05:14:05;;;;;;;1999.90;999.90;;;;;;;;;;5101965;27;20385;-77
2022/10/25 05:16:33;;;;;;;1999.90;999.90;;;;;;;;;;5112011;27;20396;-77
2022/10/25 05:19:01;;;;;;;1999.90;999.90;;;;;;;;;;5106471;27;20467;-76
2022/10/25 05:21:29;;;;;;;1999.90;999.90;;;;;;;;;;5107421;27;20490;-77
2022/10/25 05:24:00;;;;;;;1999.90;999.90;;;;;;;;;;5107667;27;20468;-76
2022/10/25 05:26:29;;;;;;;1999.90;999.90;;;;;;;;;;5106113;27;20407;-76
2022/10/25 05:28:57;;;;;;;1999.90;999.90;;;;;;;;;;5113473;27;21170;-78
2022/10/25 05:31:25;;;;;;;1999.90;999.90;;;;;;;;;;5108395;27;20444;-75
2022/10/25 05:33:54;;;;;;;1999.90;999.90;;;;;;;;;;5103698;27;20387;-77
2022/10/25 05:36:22;;;;;;;1999.90;999.90;;;;;;;;;;5109616;27;20414;-76
2022/10/25 05:38:49;;;;;;;1999.90;999.90;;;;;;;;;;5109282;27;20410;-74
2022/10/25 05:41:18;;;;;;;1999.90;999.90;;;;;;;;;;5103761;27;20413;-74
2022/10/25 05:43:46;;;;;;;1999.90;999.90;;;;;;;;;;5100811;27;20438;-75
2022/10/25 05:46:15;;;;;;;1999.90;999.90;;;;;;;;;;5103464;27;21098;-75
2022/10/25 05:48:43;;;;;;;1999.90;999.90;;;;;;;;;;5088114;28;20809;-75
2022/10/25 05:51:16;;;;;;;1999.90;999.90;;;;;;;;;;5103840;27;20722;-75
2022/10/25 05:54:04;;;;;;;1999.90;999.90;;;;;;;;;;5103859;27;20402;-75
2022/10/25 05:56:34;;;;;;;1999.90;999.90;;;;;;;;;;5118635;27;20561;-75
2022/10/25 05:59:02;;;;;;;1999.90;999.90;;;;;;;;;;5099927;27;20410;-77
2022/10/25 06:01:30;;;;;;;1999.90;999.90;;;;;;;;;;5120804;27;20842;-76
2022/10/25 06:03:57;;;;;;;1999.90;999.90;;;;;;;;;;5085720;27;20395;-76
2022/10/25 06:06:25;;;;;;;1999.90;999.90;;;;;;;;;;5106768;27;20492;-75
2022/10/25 06:08:55;;;;;;;1999.90;999.90;;;;;;;;;;5101377;27;20866;-76
2022/10/25 06:11:23;;;;;;;1999.90;999.90;;;;;;;;;;5102481;27;20864;-75
2022/10/25 06:13:52;;;;;;;1999.90;999.90;;;;;;;;;;5102624;27;21079;-75
2022/10/25 06:16:20;;;;;;;1999.90;999.90;;;;;;;;;;5101762;27;20515;-75
2022/10/25 06:18:48;;;;;;;1999.90;999.90;;;;;;;;;;5105968;27;20599;-75
2022/10/25 06:21:17;;;;;;;1999.90;999.90;;;;;;;;;;5103817;27;20561;-75
2022/10/25 06:23:45;;;;;;;1999.90;999.90;;;;;;;;;;5101820;27;20402;-74
2022/10/25 06:26:14;;;;;;;1999.90;999.90;;;;;;;;;;5101294;27;20473;-72
2022/10/25 06:28:42;;;;;;;1999.90;999.90;;;;;;;;;;5104676;27;20390;-75
2022/10/25 06:31:12;;;;;;;1999.90;999.90;;;;;;;;;;5103418;27;20408;-75
2022/10/25 06:33:40;;;;;;;1999.90;999.90;;;;;;;;;;5105241;27;20418;-75
2022/10/25 06:36:11;;;;;;;1999.90;999.90;;;;;;;;;;5088288;27;20399;-74
2022/10/25 06:38:39;;;;;;;1999.90;999.90;;;;;;;;;;5103476;27;20412;-75
2022/10/25 06:41:09;;;;;;;1999.90;999.90;;;;;;;;;;5105328;27;20391;-73
2022/10/25 06:43:37;;;;;;;1999.90;999.90;;;;;;;;;;5100892;27;20395;-73
2022/10/25 06:46:05;;;;;;;1999.90;999.90;;;;;;;;;;5086295;27;20553;-74
2022/10/25 06:48:34;;;;;;;1999.90;999.90;;;;;;;;;;5097714;27;20389;-74
2022/10/25 06:51:03;;;;;;;1999.90;999.90;;;;;;;;;;5107625;27;20455;-74
2022/10/25 06:53:31;;;;;;;1999.90;999.90;;;;;;;;;;5101259;27;20479;-72
2022/10/25 06:55:59;;;;;;;1999.90;999.90;;;;;;;;;;5101330;27;20449;-74
2022/10/25 06:58:32;;;;;;;1999.90;999.90;;;;;;;;;;5100479;27;20405;-74
2022/10/25 07:01:01;;;;;;;1999.90;999.90;;;;;;;;;;5101270;27;20429;-74
2022/10/25 07:03:33;;;;;;;1999.90;999.90;;;;;;;;;;5100963;27;20407;-75
2022/10/25 07:06:04;;;;;;;1999.90;999.90;;;;;;;;;;5106393;27;20417;-76
2022/10/25 07:08:31;;;;;;;1999.90;999.90;;;;;;;;;;5116999;27;20381;-74
2022/10/25 07:10:59;;;;;;;1999.90;999.90;;;;;;;;;;5095091;27;20391;-74
2022/10/25 07:13:27;;;;;;;1999.90;999.90;;;;;;;;;;5092143;27;20389;-75
2022/10/25 07:16:01;;;;;;;1999.90;999.90;;;;;;;;;;5085420;27;20620;-74
2022/10/25 07:18:29;;;;;;;1999.90;999.90;;;;;;;;;;5101817;27;20394;-74
2022/10/25 07:20:58;;;;;;;1999.90;999.90;;;;;;;;;;5103310;27;20395;-75
2022/10/25 07:23:27;;;;;;;1999.90;999.90;;;;;;;;;;5097431;27;20681;-74
2022/10/25 07:25:55;;;;;;;1999.90;999.90;;;;;;;;;;5096882;27;20959;-75
2022/10/25 07:28:23;;;;;;;1999.90;999.90;;;;;;;;;;5102337;27;20405;-74
2022/10/25 07:30:51;;;;;;;1999.90;999.90;;;;;;;;;;5106717;27;20399;-75
2022/10/25 07:33:19;;;;;;;1999.90;999.90;;;;;;;;;;5102183;27;20403;-74
2022/10/25 07:35:48;;;;;;;1999.90;999.90;;;;;;;;;;5104600;27;20437;-75
2022/10/25 07:38:37;;;;;;;1999.90;999.90;;;;;;;;;;5106450;27;20460;-74
2022/10/25 07:41:05;;;;;;;1999.90;999.90;;;;;;;;;;5105449;27;20443;-74
2022/10/25 07:43:33;;;;;;;1999.90;999.90;;;;;;;;;;5108248;27;20485;-75
2022/10/25 07:46:00;;;;;;;1999.90;999.90;;;;;;;;;;5103030;27;20971;-74
2022/10/25 07:48:28;;;;;;;1999.90;999.90;;;;;;;;;;5108231;27;20409;-73
2022/10/25 07:50:56;;;;;;;1999.90;999.90;;;;;;;;;;5111685;27;20379;-75
2022/10/25 07:53:23;;;;;;;1999.90;999.90;;;;;;;;;;5104275;27;20390;-75
2022/10/25 07:55:54;;;;;;;1999.90;999.90;;;;;;;;;;5105343;27;20433;-74
2022/10/25 07:58:22;;;;;;;1999.90;999.90;;;;;;;;;;5100568;27;20397;-75
2022/10/25 08:00:49;;;;;;;1999.90;999.90;;;;;;;;;;5101277;27;20422;-75
2022/10/25 08:03:18;;;;;;;1999.90;999.90;;;;;;;;;;5105589;27;20947;-75
2022/10/25 08:05:47;;;;;;;1999.90;999.90;;;;;;;;;;5095904;27;20472;-76
2022/10/25 08:08:14;;;;;;;1999.90;999.90;;;;;;;;;;5096058;27;20391;-76
2022/10/25 08:10:43;;;;;;;1999.90;999.90;;;;;;;;;;5101881;27;20426;-75
2022/10/25 08:13:12;;;;;;;1999.90;999.90;;;;;;;;;;5103716;27;20419;-76
2022/10/25 08:15:40;;;;;;;1999.90;999.90;;;;;;;;;;5102410;27;20418;-73
2022/10/25 08:18:08;;;;;;;1999.90;999.90;;;;;;;;;;5097380;27;20387;-75
2022/10/25 08:20:36;;;;;;;1999.90;999.90;;;;;;;;;;5115059;27;20478;-74
2022/10/25 08:23:25;;;;;;;1999.90;999.90;;;;;;;;;;5099892;27;20480;-74
2022/10/25 08:25:52;;;;;;;1999.90;999.90;;;;;;;;;;5100939;27;20403;-73
2022/10/25 08:28:21;;;;;;;1999.90;999.90;;;;;;;;;;5104489;27;20407;-76
2022/10/25 08:30:49;;;;;;;1999.90;999.90;;;;;;;;;;5099682;27;20544;-75
2022/10/25 08:33:17;;;;;;;1999.90;999.90;;;;;;;;;;5099837;27;20396;-76
2022/10/25 08:35:44;;;;;;;1999.90;999.90;;;;;;;;;;5100753;27;20893;-76
2022/10/25 08:38:12;;;;;;;1999.90;999.90;;;;;;;;;;5105556;27;20500;-77
2022/10/25 08:40:48;;;;;;;1999.90;999.90;;;;;;;;;;5102708;27;20417;-75
2022/10/25 08:43:24;;;;;;;1999.90;999.90;;;;;;;;;;5106070;27;20441;-76
2022/10/25 08:45:56;;;;;;;1999.90;999.90;;;;;;;;;;5109929;27;20451;-75
2022/10/25 08:48:27;;;;;;;1999.90;999.90;;;;;;;;;;5105920;27;21991;-76
2022/10/25 08:50:55;;;;;;;1999.90;999.90;;;;;;;;;;5103436;27;20875;-75
2022/10/25 08:53:25;;;;;;;1999.90;999.90;;;;;;;;;;5108221;27;20392;-76
2022/10/25 08:55:54;;;;;;;1999.90;999.90;;;;;;;;;;5110663;27;20431;-77
2022/10/25 08:58:45;;;;;;;1999.90;999.90;;;;;;;;;;5105617;27;21532;-78
2022/10/25 09:01:18;;;;;;;1999.90;999.90;;;;;;;;;;5100553;27;20422;-77
2022/10/25 09:03:46;;;;;;;1999.90;999.90;;;;;;;;;;5109831;27;20469;-78
2022/10/25 09:06:20;;;;;;;1999.90;999.90;;;;;;;;;;5109867;27;21071;-77
2022/10/25 09:08:54;;;;;;;1999.90;999.90;;;;;;;;;;5100932;27;20407;-77
2022/10/25 09:11:26;;;;;;;1999.90;999.90;;;;;;;;;;5102530;27;20387;-77
2022/10/25 09:13:58;;;;;;;1999.90;999.90;;;;;;;;;;5109496;27;20392;-78
2022/10/25 09:16:31;;;;;;;1999.90;999.90;;;;;;;;;;5109968;27;21007;-77
2022/10/25 09:18:59;;;;;;;1999.90;999.90;;;;;;;;;;5108323;27;20389;-76
2022/10/25 09:21:30;;;;;;;1999.90;999.90;;;;;;;;;;5111774;27;20432;-76
2022/10/25 09:23:58;;;;;;;1999.90;999.90;;;;;;;;;;5103075;27;20384;-77
2022/10/25 09:26:41;;;;;;;1999.90;999.90;;;;;;;;;;5102337;27;20403;-78
2022/10/25 09:29:13;;;;;;;1999.90;999.90;;;;;;;;;;5101011;27;20415;-76
2022/10/25 09:31:44;;;;;;;1999.90;999.90;;;;;;;;;;5103043;27;21255;-76
2022/10/25 09:34:11;;;;;;;1999.90;999.90;;;;;;;;;;5106743;27;20439;-75
2022/10/25 09:36:42;;;;;;;1999.90;999.90;;;;;;;;;;5100708;27;20389;-75
2022/10/25 09:39:15;;;;;;;1999.90;999.90;;;;;;;;;;5103843;27;20863;-74
2022/10/25 09:41:44;;;;;;;1999.90;999.90;;;;;;;;;;5102821;27;20469;-76
2022/10/25 09:44:14;;;;;;;1999.90;999.90;;;;;;;;;;5094835;27;21952;-77
2022/10/25 09:46:44;;;;;;;1999.90;999.90;;;;;;;;;;5103036;27;20528;-76
2022/10/25 09:49:17;;;;;;;1999.90;999.90;;;;;;;;;;5100226;27;20392;-76
2022/10/25 09:51:50;;;;;;;1999.90;999.90;;;;;;;;;;5099860;27;20410;-75
2022/10/25 09:54:26;;;;;;;1999.90;999.90;;;;;;;;;;5116658;27;20473;-76
2022/10/25 09:56:54;;;;;;;1999.90;999.90;;;;;;;;;;5101873;27;20455;-75
2022/10/25 09:59:22;;;;;;;1999.90;999.90;;;;;;;;;;5104895;27;20477;-75
2022/10/25 10:01:51;;;;;;;1999.90;999.90;;;;;;;;;;5097576;27;20389;-76
2022/10/25 10:04:25;;;;;;;1999.90;999.90;;;;;;;;;;5095882;27;20401;-76
2022/10/25 10:06:55;;;;;;;1999.90;999.90;;;;;;;;;;5102168;27;20966;-75
2022/10/25 10:09:24;;;;;;;1999.90;999.90;;;;;;;;;;5102887;27;21530;-77
2022/10/25 10:11:52;;;;;;;1999.90;999.90;;;;;;;;;;5115032;27;21009;-76
2022/10/25 10:14:22;;;;;;;1999.90;999.90;;;;;;;;;;5099444;27;20828;-76
2022/10/25 10:16:53;;;;;;;1999.90;999.90;;;;;;;;;;5114761;27;21361;-76
2022/10/25 10:19:21;;;;;;;1999.90;999.90;;;;;;;;;;5096856;27;20470;-75
2022/10/25 10:21:51;;;;;;;1999.90;999.90;;;;;;;;;;5097139;27;20387;-74
2022/10/25 10:24:20;;;;;;;1999.90;999.90;;;;;;;;;;5102498;27;20391;-76
2022/10/25 10:26:50;;;;;;;1999.90;999.90;;;;;;;;;;5098965;27;20421;-76
2022/10/25 10:29:20;;;;;;;1999.90;999.90;;;;;;;;;;5086440;27;20387;-77
2022/10/25 10:31:49;;;;;;;1999.90;999.90;;;;;;;;;;5104829;27;20468;-76
2022/10/25 10:34:24;;;;;;;1999.90;999.90;;;;;;;;;;5106764;27;21172;-76
2022/10/25 10:37:05;;;;;;;1999.90;999.90;;;;;;;;;;5120651;27;20470;-75
2022/10/25 10:39:33;;;;;;;1999.90;999.90;;;;;;;;;;5104169;27;20391;-74
2022/10/25 10:42:02;;;;;;;1999.90;999.90;;;;;;;;;;5105492;27;20401;-76
2022/10/25 10:44:33;;;;;;;1999.90;999.90;;;;;;;;;;5096950;27;20455;-76
2022/10/25 10:47:01;;;;;;;1999.90;999.90;;;;;;;;;;5094227;27;20550;-76
2022/10/25 10:49:36;;;;;;;1999.90;999.90;;;;;;;;;;5098787;27;20387;-77
2022/10/25 10:52:04;;;;;;;1999.90;999.90;;;;;;;;;;5095441;27;20784;-76
2022/10/25 10:54:34;;;;;;;1999.90;999.90;;;;;;;;;;5100321;27;20361;-76
2022/10/25 10:57:02;;;;;;;1999.90;999.90;;;;;;;;;;5101269;27;20467;-76
2022/10/25 10:59:32;;;;;;;1999.90;999.90;;;;;;;;;;5095578;27;20407;-73
2022/10/25 11:02:10;;;;;;;1999.90;999.90;;;;;;;;;;5084567;27;21199;-76
2022/10/25 11:04:48;;;;;;;1999.90;999.90;;;;;;;;;;5107523;27;20397;-75
2022/10/25 11:07:20;;;;;;;1999.90;999.90;;;;;;;;;;5097389;27;20410;-75
2022/10/25 11:09:48;;;;;;;1999.90;999.90;;;;;;;;;;5076256;28;20426;-77
2022/10/25 11:12:17;;;;;;;1999.90;999.90;;;;;;;;;;5095269;27;20405;-77
2022/10/25 11:14:45;;;;;;;1999.90;999.90;;;;;;;;;;5112512;27;20398;-77
2022/10/25 11:17:14;;;;;;;1999.90;999.90;;;;;;;;;;5097179;27;20394;-77
2022/10/25 11:19:46;;;;;;;1999.90;999.90;;;;;;;;;;5099016;27;20423;-75
2022/10/25 11:22:23;;;;;;;1999.90;999.90;;;;;;;;;;5096704;27;20386;-74
2022/10/25 11:24:56;;;;;;;1999.90;999.90;;;;;;;;;;5094391;27;20424;-75
2022/10/25 11:27:30;;;;;;;1999.90;999.90;;;;;;;;;;5098047;27;20423;-75
2022/10/25 11:30:05;;;;;;;1999.90;999.90;;;;;;;;;;5119813;27;20409;-74
2022/10/25 11:32:41;;;;;;;1999.90;999.90;;;;;;;;;;5078271;28;20393;-75
2022/10/25 11:35:18;;;;;;;1999.90;999.90;;;;;;;;;;5079794;27;20638;-74
2022/10/25 11:37:51;;;;;;;1999.90;999.90;;;;;;;;;;5093831;27;20410;-75
2022/10/25 11:40:20;;;;;;;1999.90;999.90;;;;;;;;;;5104279;27;20482;-76
2022/10/25 11:43:04;;;;;;;1999.90;999.90;;;;;;;;;;5096974;27;20486;-77
2022/10/25 11:45:34;;;;;;;1999.90;999.90;;;;;;;;;;5116448;27;20445;-71
2022/10/25 11:48:10;;;;;;;1999.90;999.90;;;;;;;;;;5096293;27;20435;-74
2022/10/25 11:50:41;;;;;;;1999.90;999.90;;;;;;;;;;5107927;27;20449;-74
2022/10/25 11:53:16;;;;;;;1999.90;999.90;;;;;;;;;;5103960;27;20513;-75
2022/10/25 11:55:47;;;;;;;1999.90;999.90;;;;;;;;;;5093856;27;20444;-76
2022/10/25 11:58:21;;;;;;;1999.90;999.90;;;;;;;;;;5097785;27;20403;-75
2022/10/25 12:00:54;;;;;;;1999.90;999.90;;;;;;;;;;5103110;27;20379;-73
2022/10/25 12:03:30;;;;;;;1999.90;999.90;;;;;;;;;;5105566;27;20411;-74
2022/10/25 12:06:01;;;;;;;1999.90;999.90;;;;;;;;;;5120075;27;20383;-74
2022/10/25 12:08:36;;;;;;;1999.90;999.90;;;;;;;;;;5101931;27;20539;-74
2022/10/25 12:11:05;;;;;;;1999.90;999.90;;;;;;;;;;5105790;27;20389;-72
2022/10/25 12:13:35;;;;;;;1999.90;999.90;;;;;;;;;;5109238;27;20393;-73
2022/10/25 12:16:05;;;;;;;1999.90;999.90;;;;;;;;;;5105813;27;20401;-72
2022/10/25 12:18:35;;;;;;;1999.90;999.90;;;;;;;;;;5102926;27;20405;-72
2022/10/25 12:21:03;;;;;;;1999.90;999.90;;;;;;;;;;5113769;27;20951;-76
2022/10/25 12:23:37;;;;;;;1999.90;999.90;;;;;;;;;;5102041;27;20467;-70
2022/10/25 12:26:06;;;;;;;1999.90;999.90;;;;;;;;;;5103251;27;20396;-75
2022/10/25 12:28:42;;;;;;;1999.90;999.90;;;;;;;;;;5106811;27;20415;-74
2022/10/25 12:31:12;;;;;;;1999.90;999.90;;;;;;;;;;5087717;27;20392;-76
2022/10/25 12:33:41;;;;;;;1999.90;999.90;;;;;;;;;;5104075;27;20464;-75
2022/10/25 12:36:11;;;;;;;1999.90;999.90;;;;;;;;;;5110672;27;20419;-71
2022/10/25 12:38:41;;;;;;;1999.90;999.90;;;;;;;;;;5111171;27;20452;-74
2022/10/25 12:41:14;;;;;;;1999.90;999.90;;;;;;;;;;5110584;27;21057;-69
2022/10/25 12:43:45;;;;;;;1999.90;999.90;;;;;;;;;;5111041;27;20467;-75
2022/10/25 12:46:30;;;;;;;1999.90;999.90;;;;;;;;;;5106033;27;20398;-76
2022/10/25 12:49:06;;;;;;;1999.90;999.90;;;;;;;;;;5065879;27;20492;-71
2022/10/25 12:51:41;;;;;;;1999.90;999.90;;;;;;;;;;5103859;27;20411;-75
2022/10/25 12:54:25;;;;;;;1999.90;999.90;;;;;;;;;;5106849;27;20399;-76
2022/10/25 12:57:01;;;;;;;1999.90;999.90;;;;;;;;;;5107728;27;20395;-77
2022/10/25 12:59:38;;;;;;;1999.90;999.90;;;;;;;;;;5105551;27;20480;-77
2022/10/25 13:02:13;;;;;;;1999.90;999.90;;;;;;;;;;5104480;27;20391;-77
2022/10/25 13:04:47;;;;;;;1999.90;999.90;;;;;;;;;;5104920;27;20395;-78
2022/10/25 13:07:15;;;;;;;1999.90;999.90;;;;;;;;;;5105602;27;20453;-75
2022/10/25 13:09:45;;;;;;;1999.90;999.90;;;;;;;;;;5103297;27;21190;-78
2022/10/25 13:12:19;;;;;;;1999.90;999.90;;;;;;;;;;5102532;27;20953;-78
2022/10/25 13:14:49;;;;;;;1999.90;999.90;;;;;;;;;;5108788;27;20447;-78
2022/10/25 13:17:35;;;;;;;1999.90;999.90;;;;;;;;;;5121271;27;20399;-79
2022/10/25 13:20:22;;;;;;;1999.90;999.90;;;;;;;;;;5105091;27;20407;-78
2022/10/25 13:22:50;;;;;;;1999.90;999.90;;;;;;;;;;5090371;28;20448;-76
2022/10/25 13:25:39;;;;;;;1999.90;999.90;;;;;;;;;;5108105;27;20890;-75
2022/10/25 13:28:28;;;;;;;1999.90;999.90;;;;;;;;;;5107373;27;20942;-76
2022/10/25 13:31:19;;;;;;;1999.90;999.90;;;;;;;;;;5107610;27;20405;-77
2022/10/25 13:34:08;;;;;;;1999.90;999.90;;;;;;;;;;5123623;27;20391;-77
2022/10/25 13:36:47;;;;;;;1999.90;999.90;;;;;;;;;;5101025;27;20870;-76
2022/10/25 13:39:16;;;;;;;1999.90;999.90;;;;;;;;;;5115036;27;20511;-77
2022/10/25 13:41:45;;;;;;;1999.90;999.90;;;;;;;;;;5105066;27;20864;-74
2022/10/25 13:44:19;;;;;;;1999.90;999.90;;;;;;;;;;5103596;27;20470;-76
2022/10/25 13:46:48;;;;;;;1999.90;999.90;;;;;;;;;;5101543;27;20403;-75
2022/10/25 13:49:25;;;;;;;1999.90;999.90;;;;;;;;;;5105642;27;20385;-75
2022/10/25 13:51:54;;;;;;;1999.90;999.90;;;;;;;;;;5110062;27;20393;-75
2022/10/25 13:54:22;;;;;;;1999.90;999.90;;;;;;;;;;5100360;27;20735;-76
2022/10/25 13:56:52;;;;;;;1999.90;999.90;;;;;;;;;;5102945;27;20521;-76
2022/10/25 13:59:37;;;;;;;1999.90;999.90;;;;;;;;;;5104936;27;20509;-78
2022/10/25 14:02:16;;;;;;;1999.90;999.90;;;;;;;;;;5092349;27;20974;-75